sensor_id;sensor_type;location;lat;lon;timestamp;pressure;altitude;pressure_sealevel;temperature;humidity
68859;BME280;55864;49.238;8.092;2022-07-03T00:01:47;99488.09;;;18.94;58.35
68859;BME280;55864;49.238;8.092;2022-07-03T00:03:48;99486.44;;;18.93;58.16
68859;BME280;55864;49.238;8.092;2022-07-03T00:05:48;99492.19;;;18.97;57.90
68859;BME280;55864;49.238;8.092;2022-07-03T00:07:49;99482.81;;;19.01;57.75
68859;BME280;55864;49.238;8.092;2022-07-03T00:09:49;99485.88;;;18.98;58.39
68859;BME280;55864;49.238;8.092;2022-07-03T00:11:50;99491.56;;;18.95;58.14
68859;BME280;55864;49.238;8.092;2022-07-03T00:13:51;99496.94;;;19.01;57.82
68859;BME280;55864;49.238;8.092;2022-07-03T00:15:51;99488.47;;;18.91;58.33
68859;BME280;55864;49.238;8.092;2022-07-03T00:17:53;99486.50;;;18.72;58.20
68859;BME280;55864;49.238;8.092;2022-07-03T00:19:54;99493.94;;;18.83;58.65
68859;BME280;55864;49.238;8.092;2022-07-03T00:21:56;99483.25;;;18.76;57.98
68859;BME280;55864;49.238;8.092;2022-07-03T00:24:02;99481.66;;;18.82;58.79
68859;BME280;55864;49.238;8.092;2022-07-03T00:26:04;99480.63;;;18.83;58.51
68859;BME280;55864;49.238;8.092;2022-07-03T00:28:06;99478.75;;;18.77;58.89
68859;BME280;55864;49.238;8.092;2022-07-03T00:30:07;99476.38;;;18.89;58.46
68859;BME280;55864;49.238;8.092;2022-07-03T00:32:08;99475.56;;;18.88;58.88
68859;BME280;55864;49.238;8.092;2022-07-03T00:34:11;99478.22;;;18.88;58.91
68859;BME280;55864;49.238;8.092;2022-07-03T00:36:16;99478.56;;;18.78;59.28
68859;BME280;55864;49.238;8.092;2022-07-03T00:38:17;99483.19;;;18.70;59.08
68859;BME280;55864;49.238;8.092;2022-07-03T00:40:18;99482.56;;;18.68;59.68
68859;BME280;55864;49.238;8.092;2022-07-03T00:42:19;99484.41;;;18.67;59.57
68859;BME280;55864;49.238;8.092;2022-07-03T00:44:20;99480.22;;;18.58;59.53
68859;BME280;55864;49.238;8.092;2022-07-03T00:46:21;99477.31;;;18.47;59.57
68859;BME280;55864;49.238;8.092;2022-07-03T00:48:22;99473.41;;;18.28;60.20
68859;BME280;55864;49.238;8.092;2022-07-03T00:50:30;99471.66;;;18.35;60.56
68859;BME280;55864;49.238;8.092;2022-07-03T00:52:33;99481.56;;;18.27;60.83
68859;BME280;55864;49.238;8.092;2022-07-03T00:54:38;99476.88;;;18.08;61.79
68859;BME280;55864;49.238;8.092;2022-07-03T00:56:49;99479.75;;;18.06;62.37
68859;BME280;55864;49.238;8.092;2022-07-03T00:58:53;99486.56;;;18.15;61.88
68859;BME280;55864;49.238;8.092;2022-07-03T01:00:54;99483.03;;;18.08;61.85
68859;BME280;55864;49.238;8.092;2022-07-03T01:02:58;99480.50;;;18.00;62.11
68859;BME280;55864;49.238;8.092;2022-07-03T01:05:08;99477.28;;;18.05;62.52
68859;BME280;55864;49.238;8.092;2022-07-03T01:07:21;99478.66;;;18.01;62.08
68859;BME280;55864;49.238;8.092;2022-07-03T01:09:34;99482.84;;;18.10;62.30
68859;BME280;55864;49.238;8.092;2022-07-03T01:11:38;99482.06;;;17.95;62.46
68859;BME280;55864;49.238;8.092;2022-07-03T01:13:53;99483.53;;;17.97;63.34
68859;BME280;55864;49.238;8.092;2022-07-03T01:16:05;99481.31;;;18.01;62.41
68859;BME280;55864;49.238;8.092;2022-07-03T01:18:20;99474.41;;;18.06;63.35
68859;BME280;55864;49.238;8.092;2022-07-03T01:20:27;99472.84;;;18.12;62.64
68859;BME280;55864;49.238;8.092;2022-07-03T01:22:32;99479.53;;;18.08;63.15
68859;BME280;55864;49.238;8.092;2022-07-03T01:24:43;99469.19;;;18.13;63.39
68859;BME280;55864;49.238;8.092;2022-07-03T01:26:58;99467.91;;;18.09;62.68
68859;BME280;55864;49.238;8.092;2022-07-03T01:29:06;99465.25;;;18.09;62.94
68859;BME280;55864;49.238;8.092;2022-07-03T01:31:10;99464.63;;;18.07;63.18
68859;BME280;55864;49.238;8.092;2022-07-03T01:33:17;99463.97;;;18.05;62.95
68859;BME280;55864;49.238;8.092;2022-07-03T01:37:39;99451.19;;;17.94;62.55
68859;BME280;55864;49.238;8.092;2022-07-03T01:39:43;99465.25;;;17.88;63.17
68859;BME280;55864;49.238;8.092;2022-07-03T01:41:47;99455.03;;;17.91;63.15
68859;BME280;55864;49.238;8.092;2022-07-03T01:43:55;99459.53;;;17.91;63.12
68859;BME280;55864;49.238;8.092;2022-07-03T01:45:57;99459.03;;;17.80;63.74
68859;BME280;55864;49.238;8.092;2022-07-03T01:47:58;99456.88;;;17.69;64.12
68859;BME280;55864;49.238;8.092;2022-07-03T01:50:01;99462.78;;;17.50;64.67
68859;BME280;55864;49.238;8.092;2022-07-03T01:52:02;99459.94;;;17.52;64.50
68859;BME280;55864;49.238;8.092;2022-07-03T01:54:03;99469.44;;;17.32;65.38
68859;BME280;55864;49.238;8.092;2022-07-03T01:56:05;99454.31;;;17.61;64.06
68859;BME280;55864;49.238;8.092;2022-07-03T01:58:06;99461.56;;;17.67;63.54
68859;BME280;55864;49.238;8.092;2022-07-03T02:00:10;99465.31;;;17.58;63.78
68859;BME280;55864;49.238;8.092;2022-07-03T02:02:18;99465.41;;;17.65;63.91
68859;BME280;55864;49.238;8.092;2022-07-03T02:04:23;99454.81;;;17.71;63.74
68859;BME280;55864;49.238;8.092;2022-07-03T02:06:29;99456.03;;;17.69;63.61
68859;BME280;55864;49.238;8.092;2022-07-03T02:08:43;99459.09;;;17.87;62.27
68859;BME280;55864;49.238;8.092;2022-07-03T02:10:47;99460.56;;;17.90;62.19
68859;BME280;55864;49.238;8.092;2022-07-03T02:12:52;99455.38;;;18.03;61.57
68859;BME280;55864;49.238;8.092;2022-07-03T02:15:03;99459.66;;;18.04;61.55
68859;BME280;55864;49.238;8.092;2022-07-03T02:17:12;99465.31;;;18.15;61.04
68859;BME280;55864;49.238;8.092;2022-07-03T02:19:15;99460.41;;;18.19;61.18
68859;BME280;55864;49.238;8.092;2022-07-03T02:21:18;99457.53;;;18.14;61.06
68859;BME280;55864;49.238;8.092;2022-07-03T02:23:21;99456.25;;;18.10;61.36
68859;BME280;55864;49.238;8.092;2022-07-03T02:25:26;99455.50;;;18.16;61.21
68859;BME280;55864;49.238;8.092;2022-07-03T02:27:32;99455.88;;;18.13;61.03
68859;BME280;55864;49.238;8.092;2022-07-03T02:29:43;99451.97;;;18.09;60.80
68859;BME280;55864;49.238;8.092;2022-07-03T02:31:53;99455.88;;;18.13;61.74
68859;BME280;55864;49.238;8.092;2022-07-03T02:33:57;99448.66;;;18.07;61.35
68859;BME280;55864;49.238;8.092;2022-07-03T02:35:59;99459.09;;;18.08;60.96
68859;BME280;55864;49.238;8.092;2022-07-03T02:38:08;99450.50;;;18.27;59.72
68859;BME280;55864;49.238;8.092;2022-07-03T02:40:16;99450.44;;;18.42;59.17
68859;BME280;55864;49.238;8.092;2022-07-03T02:42:27;99452.09;;;18.70;56.99
68859;BME280;55864;49.238;8.092;2022-07-03T02:44:31;99459.09;;;18.78;56.73
68859;BME280;55864;49.238;8.092;2022-07-03T02:46:38;99455.44;;;18.79;57.28
68859;BME280;55864;49.238;8.092;2022-07-03T02:48:44;99453.22;;;18.89;57.05
68859;BME280;55864;49.238;8.092;2022-07-03T02:50:50;99456.31;;;18.86;57.53
68859;BME280;55864;49.238;8.092;2022-07-03T02:52:58;99462.38;;;18.73;57.55
68859;BME280;55864;49.238;8.092;2022-07-03T02:55:08;99464.09;;;18.60;57.92
68859;BME280;55864;49.238;8.092;2022-07-03T02:57:13;99463.38;;;18.45;58.60
68859;BME280;55864;49.238;8.092;2022-07-03T02:59:19;99466.25;;;18.29;58.65
68859;BME280;55864;49.238;8.092;2022-07-03T03:01:29;99466.06;;;18.30;58.83
68859;BME280;55864;49.238;8.092;2022-07-03T03:03:32;99465.09;;;18.38;57.87
68859;BME280;55864;49.238;8.092;2022-07-03T03:05:37;99461.63;;;18.37;57.32
68859;BME280;55864;49.238;8.092;2022-07-03T03:07:48;99465.06;;;18.52;56.30
68859;BME280;55864;49.238;8.092;2022-07-03T03:09:53;99464.00;;;18.47;56.23
68859;BME280;55864;49.238;8.092;2022-07-03T03:11:55;99469.22;;;18.61;56.23
68859;BME280;55864;49.238;8.092;2022-07-03T03:14:03;99472.09;;;18.60;55.75
68859;BME280;55864;49.238;8.092;2022-07-03T03:16:10;99474.47;;;18.55;55.70
68859;BME280;55864;49.238;8.092;2022-07-03T03:18:12;99476.91;;;18.50;56.26
68859;BME280;55864;49.238;8.092;2022-07-03T03:20:15;99477.53;;;18.52;55.86
68859;BME280;55864;49.238;8.092;2022-07-03T03:22:28;99478.09;;;18.47;56.56
68859;BME280;55864;49.238;8.092;2022-07-03T03:24:35;99480.81;;;18.33;56.93
68859;BME280;55864;49.238;8.092;2022-07-03T03:26:35;99477.97;;;18.34;56.81
68859;BME280;55864;49.238;8.092;2022-07-03T03:28:36;99476.03;;;18.43;56.72
68859;BME280;55864;49.238;8.092;2022-07-03T03:30:37;99479.69;;;18.42;56.52
68859;BME280;55864;49.238;8.092;2022-07-03T03:32:38;99486.22;;;18.39;56.37
68859;BME280;55864;49.238;8.092;2022-07-03T03:34:40;99481.34;;;18.43;56.97
68859;BME280;55864;49.238;8.092;2022-07-03T03:36:41;99487.75;;;18.48;57.00
68859;BME280;55864;49.238;8.092;2022-07-03T03:38:43;99483.66;;;18.31;56.60
68859;BME280;55864;49.238;8.092;2022-07-03T03:40:45;99486.53;;;18.30;56.67
68859;BME280;55864;49.238;8.092;2022-07-03T03:42:46;99491.84;;;18.30;56.83
68859;BME280;55864;49.238;8.092;2022-07-03T03:44:47;99486.97;;;18.33;56.21
68859;BME280;55864;49.238;8.092;2022-07-03T03:46:47;99489.03;;;18.38;56.38
68859;BME280;55864;49.238;8.092;2022-07-03T03:48:49;99484.66;;;18.45;55.91
68859;BME280;55864;49.238;8.092;2022-07-03T03:50:50;99492.72;;;18.37;55.99
68859;BME280;55864;49.238;8.092;2022-07-03T03:52:51;99489.34;;;18.43;55.93
68859;BME280;55864;49.238;8.092;2022-07-03T03:54:51;99490.44;;;18.55;56.24
68859;BME280;55864;49.238;8.092;2022-07-03T03:56:53;99498.28;;;18.63;55.48
68859;BME280;55864;49.238;8.092;2022-07-03T03:58:55;99495.72;;;18.76;54.70
68859;BME280;55864;49.238;8.092;2022-07-03T04:00:56;99498.69;;;18.88;53.69
68859;BME280;55864;49.238;8.092;2022-07-03T04:02:56;99498.97;;;18.99;53.62
68859;BME280;55864;49.238;8.092;2022-07-03T04:04:57;99498.34;;;18.97;53.78
68859;BME280;55864;49.238;8.092;2022-07-03T04:06:58;99503.63;;;18.91;55.69
68859;BME280;55864;49.238;8.092;2022-07-03T04:08:58;99495.63;;;18.63;56.86
68859;BME280;55864;49.238;8.092;2022-07-03T04:10:59;99494.00;;;18.62;56.80
68859;BME280;55864;49.238;8.092;2022-07-03T04:13:01;99501.16;;;18.61;56.54
68859;BME280;55864;49.238;8.092;2022-07-03T04:15:03;99501.59;;;18.65;56.27
68859;BME280;55864;49.238;8.092;2022-07-03T04:17:03;99503.16;;;18.81;55.36
68859;BME280;55864;49.238;8.092;2022-07-03T04:19:04;99508.41;;;18.74;55.38
68859;BME280;55864;49.238;8.092;2022-07-03T04:21:05;99497.56;;;18.75;55.71
68859;BME280;55864;49.238;8.092;2022-07-03T04:23:05;99507.25;;;18.83;55.60
68859;BME280;55864;49.238;8.092;2022-07-03T04:25:06;99507.50;;;18.88;55.47
68859;BME280;55864;49.238;8.092;2022-07-03T04:27:07;99509.69;;;19.06;54.33
68859;BME280;55864;49.238;8.092;2022-07-03T04:29:09;99511.88;;;18.96;54.66
68859;BME280;55864;49.238;8.092;2022-07-03T04:31:10;99518.25;;;19.01;55.12
68859;BME280;55864;49.238;8.092;2022-07-03T04:33:11;99509.09;;;19.10;54.85
68859;BME280;55864;49.238;8.092;2022-07-03T04:35:11;99514.06;;;19.20;54.54
68859;BME280;55864;49.238;8.092;2022-07-03T04:37:12;99510.50;;;19.34;53.22
68859;BME280;55864;49.238;8.092;2022-07-03T04:39:13;99514.34;;;19.31;52.95
68859;BME280;55864;49.238;8.092;2022-07-03T04:41:13;99516.03;;;19.39;52.88
68859;BME280;55864;49.238;8.092;2022-07-03T04:43:14;99507.69;;;19.48;52.86
68859;BME280;55864;49.238;8.092;2022-07-03T04:45:16;99508.97;;;19.59;52.66
68859;BME280;55864;49.238;8.092;2022-07-03T04:47:16;99512.88;;;19.63;52.78
68859;BME280;55864;49.238;8.092;2022-07-03T04:49:17;99520.81;;;19.50;55.08
68859;BME280;55864;49.238;8.092;2022-07-03T04:51:17;99522.16;;;19.33;55.75
68859;BME280;55864;49.238;8.092;2022-07-03T04:53:18;99517.97;;;19.24;55.62
68859;BME280;55864;49.238;8.092;2022-07-03T04:55:18;99516.00;;;19.32;54.29
68859;BME280;55864;49.238;8.092;2022-07-03T04:57:19;99518.19;;;19.56;53.08
68859;BME280;55864;49.238;8.092;2022-07-03T04:59:19;99522.34;;;19.65;52.66
68859;BME280;55864;49.238;8.092;2022-07-03T05:01:21;99514.97;;;19.74;52.59
68859;BME280;55864;49.238;8.092;2022-07-03T05:03:22;99517.88;;;19.79;52.22
68859;BME280;55864;49.238;8.092;2022-07-03T05:05:22;99515.00;;;19.81;52.64
68859;BME280;55864;49.238;8.092;2022-07-03T05:07:23;99516.72;;;19.95;51.65
68859;BME280;55864;49.238;8.092;2022-07-03T05:09:23;99518.94;;;19.91;52.12
68859;BME280;55864;49.238;8.092;2022-07-03T05:11:24;99518.13;;;19.91;52.25
68859;BME280;55864;49.238;8.092;2022-07-03T05:13:24;99510.75;;;19.99;52.52
68859;BME280;55864;49.238;8.092;2022-07-03T05:15:25;99523.66;;;19.96;53.19
68859;BME280;55864;49.238;8.092;2022-07-03T05:17:27;99521.88;;;20.09;53.01
68859;BME280;55864;49.238;8.092;2022-07-03T05:19:27;99520.84;;;20.10;53.29
68859;BME280;55864;49.238;8.092;2022-07-03T05:21:28;99523.25;;;19.99;54.06
68859;BME280;55864;49.238;8.092;2022-07-03T05:23:28;99520.34;;;19.87;54.98
68859;BME280;55864;49.238;8.092;2022-07-03T05:25:31;99527.97;;;19.97;54.49
68859;BME280;55864;49.238;8.092;2022-07-03T05:27:35;99526.97;;;19.98;54.73
68859;BME280;55864;49.238;8.092;2022-07-03T05:29:38;99529.84;;;20.03;54.42
68859;BME280;55864;49.238;8.092;2022-07-03T05:31:39;99523.72;;;20.09;54.50
68859;BME280;55864;49.238;8.092;2022-07-03T05:33:41;99523.34;;;20.18;53.53
68859;BME280;55864;49.238;8.092;2022-07-03T05:35:44;99524.19;;;20.19;53.08
68859;BME280;55864;49.238;8.092;2022-07-03T05:37:47;99531.59;;;20.36;52.91
68859;BME280;55864;49.238;8.092;2022-07-03T05:39:47;99524.81;;;20.34;53.26
68859;BME280;55864;49.238;8.092;2022-07-03T05:41:48;99529.16;;;20.41;52.64
68859;BME280;55864;49.238;8.092;2022-07-03T05:43:58;99535.91;;;20.44;52.86
68859;BME280;55864;49.238;8.092;2022-07-03T05:45:58;99541.69;;;20.47;51.99
68859;BME280;55864;49.238;8.092;2022-07-03T05:47:59;99527.50;;;20.47;52.47
68859;BME280;55864;49.238;8.092;2022-07-03T05:50:02;99526.47;;;20.48;52.16
68859;BME280;55864;49.238;8.092;2022-07-03T05:52:03;99530.81;;;20.62;51.55
68859;BME280;55864;49.238;8.092;2022-07-03T05:54:04;99524.03;;;20.66;51.82
68859;BME280;55864;49.238;8.092;2022-07-03T05:56:04;99528.56;;;20.59;51.92
68859;BME280;55864;49.238;8.092;2022-07-03T05:58:05;99530.41;;;20.72;51.54
68859;BME280;55864;49.238;8.092;2022-07-03T06:00:06;99531.41;;;20.71;51.94
68859;BME280;55864;49.238;8.092;2022-07-03T06:02:07;99527.72;;;20.78;51.89
68859;BME280;55864;49.238;8.092;2022-07-03T06:04:08;99524.66;;;20.81;51.74
68859;BME280;55864;49.238;8.092;2022-07-03T06:06:10;99530.41;;;20.85;51.83
68859;BME280;55864;49.238;8.092;2022-07-03T06:08:10;99535.53;;;20.93;51.78
68859;BME280;55864;49.238;8.092;2022-07-03T06:10:11;99535.16;;;21.02;51.76
68859;BME280;55864;49.238;8.092;2022-07-03T06:12:11;99535.13;;;20.96;51.79
68859;BME280;55864;49.238;8.092;2022-07-03T06:14:15;99542.28;;;20.95;51.99
68859;BME280;55864;49.238;8.092;2022-07-03T06:16:19;99540.50;;;21.02;51.87
68859;BME280;55864;49.238;8.092;2022-07-03T06:18:20;99544.56;;;20.98;52.28
68859;BME280;55864;49.238;8.092;2022-07-03T06:20:20;99542.94;;;21.04;52.23
68859;BME280;55864;49.238;8.092;2022-07-03T06:22:27;99540.25;;;21.10;51.97
68859;BME280;55864;49.238;8.092;2022-07-03T06:24:27;99548.06;;;21.18;51.82
68859;BME280;55864;49.238;8.092;2022-07-03T06:26:28;99553.81;;;21.22;52.32
68859;BME280;55864;49.238;8.092;2022-07-03T06:28:28;99545.19;;;21.26;52.22
68859;BME280;55864;49.238;8.092;2022-07-03T06:30:29;99554.03;;;21.14;52.47
68859;BME280;55864;49.238;8.092;2022-07-03T06:32:29;99557.72;;;21.32;51.94
68859;BME280;55864;49.238;8.092;2022-07-03T06:34:30;99553.16;;;21.33;51.79
68859;BME280;55864;49.238;8.092;2022-07-03T06:36:31;99551.31;;;21.40;51.54
68859;BME280;55864;49.238;8.092;2022-07-03T06:38:32;99547.00;;;21.39;51.56
68859;BME280;55864;49.238;8.092;2022-07-03T06:40:33;99550.88;;;21.49;51.19
68859;BME280;55864;49.238;8.092;2022-07-03T06:42:34;99549.66;;;21.45;51.31
68859;BME280;55864;49.238;8.092;2022-07-03T06:44:36;99551.09;;;21.41;51.32
68859;BME280;55864;49.238;8.092;2022-07-03T06:46:37;99551.69;;;21.57;51.44
68859;BME280;55864;49.238;8.092;2022-07-03T06:48:37;99546.94;;;21.59;50.90
68859;BME280;55864;49.238;8.092;2022-07-03T06:50:38;99547.78;;;21.52;50.72
68859;BME280;55864;49.238;8.092;2022-07-03T06:52:38;99547.13;;;21.64;50.56
68859;BME280;55864;49.238;8.092;2022-07-03T06:54:40;99553.69;;;21.68;50.27
68859;BME280;55864;49.238;8.092;2022-07-03T06:56:41;99556.38;;;21.74;50.48
68859;BME280;55864;49.238;8.092;2022-07-03T06:58:42;99557.78;;;21.83;49.53
68859;BME280;55864;49.238;8.092;2022-07-03T07:00:42;99554.84;;;21.98;49.66
68859;BME280;55864;49.238;8.092;2022-07-03T07:02:43;99560.25;;;21.91;49.61
68859;BME280;55864;49.238;8.092;2022-07-03T07:04:43;99558.97;;;21.94;49.40
68859;BME280;55864;49.238;8.092;2022-07-03T07:06:44;99559.72;;;22.14;49.30
68859;BME280;55864;49.238;8.092;2022-07-03T07:08:45;99565.88;;;22.14;48.78
68859;BME280;55864;49.238;8.092;2022-07-03T07:10:47;99567.06;;;22.25;47.99
68859;BME280;55864;49.238;8.092;2022-07-03T07:12:48;99560.06;;;22.24;47.95
68859;BME280;55864;49.238;8.092;2022-07-03T07:14:48;99568.19;;;22.42;47.97
68859;BME280;55864;49.238;8.092;2022-07-03T07:16:49;99571.50;;;22.44;48.28
68859;BME280;55864;49.238;8.092;2022-07-03T07:18:49;99566.69;;;22.59;48.43
68859;BME280;55864;49.238;8.092;2022-07-03T07:20:50;99562.38;;;22.52;48.29
68859;BME280;55864;49.238;8.092;2022-07-03T07:22:50;99564.41;;;22.56;48.02
68859;BME280;55864;49.238;8.092;2022-07-03T07:24:51;99564.84;;;22.60;48.12
68859;BME280;55864;49.238;8.092;2022-07-03T07:26:53;99562.75;;;22.55;48.06
68859;BME280;55864;49.238;8.092;2022-07-03T07:28:54;99564.50;;;22.74;48.32
68859;BME280;55864;49.238;8.092;2022-07-03T07:30:55;99556.50;;;22.68;48.29
68859;BME280;55864;49.238;8.092;2022-07-03T07:32:55;99571.63;;;22.87;48.51
68859;BME280;55864;49.238;8.092;2022-07-03T07:34:56;99570.00;;;22.86;49.07
68859;BME280;55864;49.238;8.092;2022-07-03T07:36:56;99565.34;;;22.99;48.54
68859;BME280;55864;49.238;8.092;2022-07-03T07:38:57;99566.09;;;23.06;48.24
68859;BME280;55864;49.238;8.092;2022-07-03T07:40:58;99562.09;;;23.15;48.00
68859;BME280;55864;49.238;8.092;2022-07-03T07:43:00;99568.09;;;23.11;48.16
68859;BME280;55864;49.238;8.092;2022-07-03T07:45:00;99569.59;;;23.07;48.82
68859;BME280;55864;49.238;8.092;2022-07-03T07:47:01;99570.09;;;23.22;48.19
68859;BME280;55864;49.238;8.092;2022-07-03T07:49:01;99568.09;;;23.35;48.45
68859;BME280;55864;49.238;8.092;2022-07-03T07:51:02;99570.00;;;23.28;48.20
68859;BME280;55864;49.238;8.092;2022-07-03T07:53:02;99569.47;;;23.45;48.25
68859;BME280;55864;49.238;8.092;2022-07-03T07:55:04;99575.91;;;23.62;47.74
68859;BME280;55864;49.238;8.092;2022-07-03T07:57:05;99573.97;;;23.69;47.40
68859;BME280;55864;49.238;8.092;2022-07-03T07:59:06;99575.16;;;23.73;47.81
68859;BME280;55864;49.238;8.092;2022-07-03T08:01:07;99575.44;;;24.01;47.35
68859;BME280;55864;49.238;8.092;2022-07-03T08:03:08;99577.38;;;24.12;46.31
68859;BME280;55864;49.238;8.092;2022-07-03T08:05:08;99573.19;;;24.16;46.10
68859;BME280;55864;49.238;8.092;2022-07-03T08:07:09;99580.47;;;24.27;46.15
68859;BME280;55864;49.238;8.092;2022-07-03T08:09:09;99573.53;;;24.49;45.65
68859;BME280;55864;49.238;8.092;2022-07-03T08:11:10;99572.91;;;24.65;45.57
68859;BME280;55864;49.238;8.092;2022-07-03T08:13:11;99570.28;;;24.77;44.24
68859;BME280;55864;49.238;8.092;2022-07-03T08:15:13;99571.03;;;25.07;41.53
68859;BME280;55864;49.238;8.092;2022-07-03T08:17:14;99568.69;;;25.34;40.83
68859;BME280;55864;49.238;8.092;2022-07-03T08:19:14;99572.78;;;25.48;39.14
68859;BME280;55864;49.238;8.092;2022-07-03T08:21:15;99569.81;;;25.72;38.56
68859;BME280;55864;49.238;8.092;2022-07-03T08:23:15;99575.88;;;25.91;38.50
68859;BME280;55864;49.238;8.092;2022-07-03T08:25:16;99571.41;;;26.08;37.96
68859;BME280;55864;49.238;8.092;2022-07-03T08:27:17;99577.88;;;26.35;37.84
68859;BME280;55864;49.238;8.092;2022-07-03T08:29:17;99571.13;;;26.49;38.00
68859;BME280;55864;49.238;8.092;2022-07-03T08:31:19;99576.09;;;26.57;37.51
68859;BME280;55864;49.238;8.092;2022-07-03T08:33:20;99573.16;;;26.70;37.87
68859;BME280;55864;49.238;8.092;2022-07-03T08:35:20;99577.59;;;26.93;36.71
68859;BME280;55864;49.238;8.092;2022-07-03T08:37:21;99576.94;;;27.03;37.34
68859;BME280;55864;49.238;8.092;2022-07-03T08:39:21;99576.81;;;27.31;37.11
68859;BME280;55864;49.238;8.092;2022-07-03T08:41:22;99579.06;;;27.34;36.21
68859;BME280;55864;49.238;8.092;2022-07-03T08:43:24;99584.41;;;27.50;35.79
68859;BME280;55864;49.238;8.092;2022-07-03T08:45:25;99579.31;;;27.70;34.98
68859;BME280;55864;49.238;8.092;2022-07-03T08:47:27;99572.81;;;27.71;35.04
68859;BME280;55864;49.238;8.092;2022-07-03T08:49:29;99579.50;;;28.07;34.60
68859;BME280;55864;49.238;8.092;2022-07-03T08:51:32;99571.84;;;28.21;33.96
68859;BME280;55864;49.238;8.092;2022-07-03T08:53:32;99572.34;;;28.18;33.56
68859;BME280;55864;49.238;8.092;2022-07-03T08:55:33;99573.72;;;28.47;33.22
68859;BME280;55864;49.238;8.092;2022-07-03T08:57:36;99575.75;;;28.88;32.20
68859;BME280;55864;49.238;8.092;2022-07-03T08:59:37;99575.00;;;28.93;31.86
68859;BME280;55864;49.238;8.092;2022-07-03T09:01:38;99573.09;;;29.20;31.54
68859;BME280;55864;49.238;8.092;2022-07-03T09:03:41;99570.19;;;29.31;32.06
68859;BME280;55864;49.238;8.092;2022-07-03T09:05:42;99568.97;;;29.54;31.33
68859;BME280;55864;49.238;8.092;2022-07-03T09:07:44;99577.28;;;29.89;30.45
68859;BME280;55864;49.238;8.092;2022-07-03T09:09:45;99577.28;;;29.84;30.04
68859;BME280;55864;49.238;8.092;2022-07-03T09:11:46;99577.78;;;29.76;29.29
68859;BME280;55864;49.238;8.092;2022-07-03T09:13:47;99580.50;;;29.76;30.13
68859;BME280;55864;49.238;8.092;2022-07-03T09:15:48;99573.34;;;29.60;29.91
68859;BME280;55864;49.238;8.092;2022-07-03T09:18:07;99572.47;;;30.06;28.79
68859;BME280;55864;49.238;8.092;2022-07-03T09:20:09;99567.63;;;30.13;28.10
68859;BME280;55864;49.238;8.092;2022-07-03T09:22:31;99576.91;;;29.65;29.26
68859;BME280;55864;49.238;8.092;2022-07-03T09:24:32;99576.56;;;30.19;28.96
68859;BME280;55864;49.238;8.092;2022-07-03T09:26:33;99571.03;;;30.66;28.66
68859;BME280;55864;49.238;8.092;2022-07-03T09:28:45;99579.94;;;30.51;27.50
68859;BME280;55864;49.238;8.092;2022-07-03T09:30:56;99582.94;;;30.65;27.26
68859;BME280;55864;49.238;8.092;2022-07-03T09:32:57;99574.78;;;30.44;27.88
68859;BME280;55864;49.238;8.092;2022-07-03T09:35:14;99577.34;;;30.09;27.98
68859;BME280;55864;49.238;8.092;2022-07-03T09:37:24;99576.69;;;30.44;27.87
68859;BME280;55864;49.238;8.092;2022-07-03T09:39:26;99581.06;;;30.80;27.81
68859;BME280;55864;49.238;8.092;2022-07-03T09:41:27;99573.75;;;30.81;28.09
68859;BME280;55864;49.238;8.092;2022-07-03T09:43:29;99577.59;;;30.90;27.27
68859;BME280;55864;49.238;8.092;2022-07-03T09:45:48;99573.72;;;30.50;26.61
68859;BME280;55864;49.238;8.092;2022-07-03T09:47:49;99574.84;;;30.75;26.69
68859;BME280;55864;49.238;8.092;2022-07-03T09:49:51;99569.69;;;30.98;27.03
68859;BME280;55864;49.238;8.092;2022-07-03T09:51:53;99569.44;;;31.00;26.20
68859;BME280;55864;49.238;8.092;2022-07-03T09:53:56;99572.97;;;30.90;26.77
68859;BME280;55864;49.238;8.092;2022-07-03T09:55:57;99572.41;;;31.18;26.41
68859;BME280;55864;49.238;8.092;2022-07-03T09:57:58;99574.59;;;31.11;25.62
68859;BME280;55864;49.238;8.092;2022-07-03T10:00:09;99563.69;;;31.31;25.68
68859;BME280;55864;49.238;8.092;2022-07-03T10:02:12;99565.31;;;31.53;25.51
68859;BME280;55864;49.238;8.092;2022-07-03T10:04:14;99571.59;;;31.43;26.54
68859;BME280;55864;49.238;8.092;2022-07-03T10:06:15;99571.31;;;31.04;27.05
68859;BME280;55864;49.238;8.092;2022-07-03T10:08:17;99568.91;;;30.98;27.18
68859;BME280;55864;49.238;8.092;2022-07-03T10:10:19;99562.63;;;30.62;27.77
68859;BME280;55864;49.238;8.092;2022-07-03T10:12:20;99557.50;;;31.11;27.18
68859;BME280;55864;49.238;8.092;2022-07-03T10:14:22;99557.69;;;31.49;27.80
68859;BME280;55864;49.238;8.092;2022-07-03T10:16:23;99564.53;;;31.47;26.85
68859;BME280;55864;49.238;8.092;2022-07-03T10:18:29;99565.81;;;31.65;26.57
68859;BME280;55864;49.238;8.092;2022-07-03T10:20:32;99569.94;;;31.42;26.55
68859;BME280;55864;49.238;8.092;2022-07-03T10:22:36;99563.69;;;31.46;26.70
68859;BME280;55864;49.238;8.092;2022-07-03T10:24:41;99562.91;;;31.26;26.79
68859;BME280;55864;49.238;8.092;2022-07-03T10:26:42;99562.84;;;31.61;26.60
68859;BME280;55864;49.238;8.092;2022-07-03T10:28:44;99563.38;;;31.63;26.58
68859;BME280;55864;49.238;8.092;2022-07-03T10:30:47;99559.78;;;31.83;26.20
68859;BME280;55864;49.238;8.092;2022-07-03T10:32:49;99558.44;;;31.75;26.06
68859;BME280;55864;49.238;8.092;2022-07-03T10:34:52;99556.56;;;31.76;26.45
68859;BME280;55864;49.238;8.092;2022-07-03T10:36:55;99557.19;;;30.67;27.12
68859;BME280;55864;49.238;8.092;2022-07-03T10:38:59;99558.00;;;31.38;27.01
68859;BME280;55864;49.238;8.092;2022-07-03T10:41:10;99558.97;;;31.92;26.84
68859;BME280;55864;49.238;8.092;2022-07-03T10:43:24;99562.19;;;31.99;26.11
68859;BME280;55864;49.238;8.092;2022-07-03T10:45:26;99556.69;;;32.09;25.54
68859;BME280;55864;49.238;8.092;2022-07-03T10:47:42;99551.69;;;31.68;25.73
68859;BME280;55864;49.238;8.092;2022-07-03T10:50:00;99552.78;;;31.62;26.75
68859;BME280;55864;49.238;8.092;2022-07-03T10:52:02;99552.69;;;31.92;26.22
68859;BME280;55864;49.238;8.092;2022-07-03T10:54:13;99545.00;;;32.09;25.71